createdAt,value
2022-07-30T00:00:46.049Z,4.38
2022-07-30T00:01:48.301Z,4.30
2022-07-30T00:02:50.878Z,4.20
2022-07-30T00:03:53.190Z,4.55
2022-07-30T00:04:55.439Z,4.40
2022-07-30T00:05:57.628Z,4.28
2022-07-30T00:07:00.750Z,4.43
2022-07-30T00:08:03.686Z,4.15
2022-07-30T00:09:05.993Z,4.32
2022-07-30T00:10:08.484Z,4.40
2022-07-30T00:11:12.106Z,4.50
2022-07-30T00:12:14.369Z,4.25
2022-07-30T00:13:16.677Z,4.07
2022-07-30T00:14:18.878Z,3.85
2022-07-30T00:15:21.237Z,4.40
2022-07-30T00:16:29.225Z,4.00
2022-07-30T00:17:31.480Z,4.28
2022-07-30T00:18:34.191Z,4.28
2022-07-30T00:19:37.077Z,4.40
2022-07-30T00:20:43.616Z,4.18
2022-07-30T00:21:49.385Z,4.10
2022-07-30T00:22:52.062Z,4.50
2022-07-30T00:24:01.467Z,3.90
2022-07-30T00:25:05.718Z,4.45
2022-07-30T00:26:07.935Z,4.07
2022-07-30T00:27:10.173Z,4.10
2022-07-30T00:28:15.457Z,4.38
2022-07-30T00:29:17.688Z,3.80
2022-07-30T00:30:20.198Z,4.40
2022-07-30T00:31:22.425Z,3.80
2022-07-30T00:32:24.602Z,4.25
2022-07-30T00:33:27.384Z,4.30
2022-07-30T00:34:29.590Z,4.00
2022-07-30T00:35:31.822Z,4.10
2022-07-30T00:36:34.175Z,4.00
2022-07-30T00:37:42.771Z,4.22
2022-07-30T00:38:47.809Z,4.10
2022-07-30T00:39:50.055Z,4.38
2022-07-30T00:40:52.385Z,4.20
2022-07-30T00:42:05.687Z,3.97
2022-07-30T00:43:07.939Z,3.92
2022-07-30T00:44:15.483Z,4.28
2022-07-30T00:45:20.833Z,4.10
2022-07-30T00:46:29.002Z,4.10
2022-07-30T00:47:31.175Z,3.95
2022-07-30T00:48:36.143Z,3.83
2022-07-30T00:49:42.600Z,4.30
2022-07-30T00:50:46.530Z,4.18
2022-07-30T00:51:52.066Z,4.35
2022-07-30T00:53:01.898Z,4.32
2022-07-30T00:54:04.130Z,3.88
2022-07-30T00:55:09.231Z,4.13
2022-07-30T00:56:14.039Z,3.88
2022-07-30T00:57:16.256Z,4.10
2022-07-30T00:58:18.614Z,4.20
2022-07-30T00:59:21.585Z,4.05
2022-07-30T01:00:25.587Z,4.10
2022-07-30T01:01:27.819Z,4.10
2022-07-30T01:02:32.527Z,4.00
2022-07-30T01:03:34.863Z,4.40
2022-07-30T01:04:37.037Z,4.05
2022-07-30T01:05:39.299Z,3.88
2022-07-30T01:06:41.579Z,4.20
2022-07-30T01:07:44.422Z,4.00
2022-07-30T01:08:49.611Z,4.22
2022-07-30T01:09:51.826Z,4.03
2022-07-30T01:10:54.036Z,4.15
2022-07-30T01:11:56.777Z,4.18
2022-07-30T01:12:59.628Z,4.03
2022-07-30T01:14:06.955Z,4.35
2022-07-30T01:15:11.125Z,4.05
2022-07-30T01:16:14.864Z,4.32
2022-07-30T01:17:17.105Z,4.20
2022-07-30T01:18:23.285Z,4.35
2022-07-30T01:19:48.178Z,4.68
2022-07-30T01:21:07.673Z,4.32
2022-07-30T01:22:16.471Z,4.60
2022-07-30T01:23:31.403Z,4.43
2022-07-30T01:24:43.023Z,4.20
2022-07-30T01:26:10.024Z,4.47
2022-07-30T01:27:19.405Z,4.60
2022-07-30T01:28:27.773Z,4.68
2022-07-30T01:29:32.257Z,4.50
2022-07-30T01:30:38.692Z,4.95
2022-07-30T01:31:43.906Z,4.38
2022-07-30T01:32:47.644Z,4.53
2022-07-30T01:33:50.775Z,4.13
2022-07-30T01:34:57.287Z,4.07
2022-07-30T01:36:00.945Z,4.90
2022-07-30T01:37:05.393Z,4.70
2022-07-30T01:38:11.427Z,4.70
2022-07-30T01:39:15.272Z,4.78
2022-07-30T01:40:18.471Z,4.88
2022-07-30T01:41:21.425Z,4.60
2022-07-30T01:42:26.687Z,4.80
2022-07-30T01:43:30.938Z,4.50
2022-07-30T01:44:34.946Z,4.82
2022-07-30T01:45:42.100Z,4.38
2022-07-30T01:46:48.066Z,5.05
2022-07-30T01:47:53.369Z,4.70
2022-07-30T01:48:58.246Z,4.88
2022-07-30T01:50:02.901Z,5.05
2022-07-30T01:51:08.929Z,5.03
2022-07-30T01:52:12.338Z,4.65
2022-07-30T01:53:20.980Z,4.47
2022-07-30T01:54:25.486Z,4.70
2022-07-30T01:55:34.756Z,5.00
2022-07-30T01:56:37.757Z,4.40
2022-07-30T01:57:46.449Z,4.60
2022-07-30T01:58:51.103Z,4.50
2022-07-30T02:00:03.610Z,4.57
2022-07-30T02:01:18.852Z,4.57
2022-07-30T02:02:21.310Z,4.78
2022-07-30T02:03:26.218Z,4.50
2022-07-30T02:04:28.739Z,4.82
2022-07-30T02:05:37.029Z,4.53
2022-07-30T02:06:45.093Z,5.10
2022-07-30T02:07:57.861Z,4.75
2022-07-30T02:09:10.820Z,4.40
2022-07-30T02:10:23.695Z,4.50
2022-07-30T02:11:44.419Z,4.50
2022-07-30T02:12:53.968Z,4.20
2022-07-30T02:13:57.974Z,4.75
2022-07-30T02:15:26.507Z,4.63
2022-07-30T02:16:34.925Z,4.63
2022-07-30T02:17:50.770Z,5.10
2022-07-30T02:19:04.494Z,5.03
2022-07-30T02:20:13.362Z,5.13
2022-07-30T02:21:19.649Z,5.40
2022-07-30T02:22:25.688Z,5.00
2022-07-30T02:23:29.739Z,4.28
2022-07-30T02:24:36.468Z,4.65
2022-07-30T02:25:50.589Z,4.75
2022-07-30T02:26:58.386Z,4.30
2022-07-30T02:28:09.825Z,4.68
2022-07-30T02:29:13.451Z,4.90
2022-07-30T02:30:16.037Z,4.90
2022-07-30T02:31:25.114Z,5.15
2022-07-30T02:32:35.867Z,5.30
2022-07-30T02:33:42.120Z,5.30
2022-07-30T02:34:56.104Z,5.05
2022-07-30T02:35:59.447Z,4.57
2022-07-30T02:37:03.577Z,5.30
2022-07-30T02:38:10.481Z,4.85
2022-07-30T02:39:14.770Z,5.13
2022-07-30T02:40:21.226Z,5.10
2022-07-30T02:41:29.969Z,5.22
2022-07-30T02:42:33.296Z,4.65
2022-07-30T02:43:37.851Z,4.90
2022-07-30T02:44:43.962Z,5.20
2022-07-30T02:45:48.986Z,4.90
2022-07-30T02:46:56.135Z,5.03
2022-07-30T02:48:34.221Z,4.75
2022-07-30T02:49:40.072Z,4.90
2022-07-30T02:50:46.370Z,5.10
2022-07-30T02:51:49.723Z,4.88
2022-07-30T02:52:53.381Z,4.72
2022-07-30T02:54:02.604Z,4.90
2022-07-30T02:55:06.143Z,5.22
2022-07-30T02:56:09.915Z,5.40
2022-07-30T02:57:15.149Z,5.00
2022-07-30T02:58:22.221Z,4.95
2022-07-30T02:59:26.515Z,4.82
2022-07-30T03:00:30.986Z,4.72
2022-07-30T03:01:35.640Z,5.22
2022-07-30T03:02:45.422Z,5.13
2022-07-30T03:03:51.456Z,5.07
2022-07-30T03:04:56.155Z,4.82
2022-07-30T03:06:00.419Z,5.22
2022-07-30T03:07:08.044Z,5.00
2022-07-30T03:08:11.655Z,5.40
2022-07-30T03:09:16.777Z,4.90
2022-07-30T03:10:19.547Z,5.30
2022-07-30T03:11:23.460Z,5.00
2022-07-30T03:12:28.969Z,4.93
2022-07-30T03:13:31.315Z,5.47
2022-07-30T03:14:33.583Z,4.97
2022-07-30T03:15:39.435Z,5.10
2022-07-30T03:16:47.448Z,5.10
2022-07-30T03:17:55.656Z,5.60
2022-07-30T03:19:05.232Z,4.95
2022-07-30T03:20:18.792Z,4.95
2022-07-30T03:21:26.104Z,5.20
2022-07-30T03:22:32.995Z,5.53
2022-07-30T03:23:37.786Z,5.32
2022-07-30T03:24:43.685Z,5.20
2022-07-30T03:25:51.153Z,4.95
2022-07-30T03:26:58.537Z,5.15
2022-07-30T03:28:04.047Z,5.30
2022-07-30T03:29:11.072Z,5.20
2022-07-30T03:30:14.396Z,5.20
2022-07-30T03:31:19.680Z,4.97
2022-07-30T03:32:26.289Z,5.05
2022-07-30T03:33:38.601Z,5.25
2022-07-30T03:34:41.756Z,5.20
2022-07-30T03:35:44.894Z,5.70
2022-07-30T03:36:47.398Z,5.63
2022-07-30T03:37:49.796Z,5.40
2022-07-30T03:38:53.085Z,5.47
2022-07-30T03:39:58.280Z,5.18
2022-07-30T03:41:02.103Z,5.32
2022-07-30T03:42:06.671Z,5.85
2022-07-30T03:43:32.796Z,5.20
2022-07-30T03:44:34.779Z,5.40
2022-07-30T03:45:41.667Z,5.13
2022-07-30T03:46:45.702Z,5.68
2022-07-30T03:47:48.807Z,5.80
2022-07-30T03:48:52.554Z,5.53
2022-07-30T03:49:55.808Z,6.03
2022-07-30T03:51:01.274Z,5.47
2022-07-30T03:52:04.719Z,5.88
2022-07-30T03:53:09.266Z,5.78
2022-07-30T03:54:27.273Z,5.55
2022-07-30T03:55:50.581Z,5.63
2022-07-30T03:57:19.373Z,5.22
2022-07-30T03:58:23.950Z,5.32
2022-07-30T03:59:28.257Z,5.68
2022-07-30T04:00:30.962Z,5.25
2022-07-30T04:01:33.396Z,5.40
2022-07-30T04:02:45.929Z,5.40
2022-07-30T04:03:54.679Z,5.80
2022-07-30T04:04:57.783Z,5.72
2022-07-30T04:06:00.695Z,5.63
2022-07-30T04:07:05.270Z,6.13
2022-07-30T04:08:07.481Z,6.07
2022-07-30T04:09:11.458Z,5.90
2022-07-30T04:10:15.560Z,5.80
2022-07-30T04:11:41.402Z,5.60
2022-07-30T04:12:46.883Z,6.05
2022-07-30T04:13:50.608Z,5.78
2022-07-30T04:14:58.949Z,5.72
2022-07-30T04:16:41.294Z,5.93
2022-07-30T04:17:38.415Z,5.72
2022-07-30T04:18:44.906Z,5.85
2022-07-30T04:19:51.999Z,6.22
2022-07-30T04:20:55.500Z,6.00
2022-07-30T04:22:00.396Z,6.15
2022-07-30T04:23:03.702Z,6.28
2022-07-30T04:24:06.922Z,5.80
2022-07-30T04:25:10.267Z,5.75
2022-07-30T04:26:26.928Z,5.82
2022-07-30T04:27:33.375Z,5.78
2022-07-30T04:28:36.645Z,5.82
2022-07-30T04:29:39.056Z,5.78
2022-07-30T04:30:41.953Z,5.60
2022-07-30T04:31:44.760Z,6.15
2022-07-30T04:33:08.380Z,5.75
2022-07-30T04:34:24.601Z,5.88
2022-07-30T04:35:51.642Z,6.00
2022-07-30T04:37:01.318Z,5.60
2022-07-30T04:38:05.850Z,6.60
2022-07-30T04:39:08.437Z,5.75
2022-07-30T04:40:10.927Z,6.30
2022-07-30T04:41:14.097Z,6.15
2022-07-30T04:42:41.941Z,5.88
2022-07-30T04:43:46.570Z,6.05
2022-07-30T04:44:50.119Z,6.35
2022-07-30T04:46:03.850Z,5.43
2022-07-30T04:47:06.239Z,5.63
2022-07-30T04:48:13.261Z,5.97
2022-07-30T04:49:34.860Z,5.60
2022-07-30T04:50:45.912Z,6.40
2022-07-30T04:51:54.909Z,5.93
2022-07-30T04:52:57.726Z,5.75
2022-07-30T04:54:06.484Z,5.68
2022-07-30T04:55:11.171Z,5.70
2022-07-30T04:56:15.988Z,5.90
2022-07-30T04:57:20.184Z,5.60
2022-07-30T04:58:27.569Z,5.68
2022-07-30T04:59:32.915Z,5.97
2022-07-30T05:00:41.176Z,5.90
2022-07-30T05:01:52.386Z,5.70
2022-07-30T05:02:56.522Z,5.55
2022-07-30T05:04:00.305Z,5.60
2022-07-30T05:05:03.159Z,5.70
2022-07-30T05:06:06.831Z,5.72
2022-07-30T05:07:14.715Z,6.00
2022-07-30T05:08:17.428Z,5.65
2022-07-30T05:09:19.954Z,5.90
2022-07-30T05:10:22.358Z,5.50
2022-07-30T05:11:24.546Z,5.93
2022-07-30T05:12:39.701Z,5.60
2022-07-30T05:13:46.124Z,5.63
2022-07-30T05:14:49.420Z,5.43
2022-07-30T05:15:55.854Z,5.53
2022-07-30T05:17:00.303Z,5.68
2022-07-30T05:18:07.294Z,5.13
2022-07-30T05:19:13.820Z,5.35
2022-07-30T05:20:16.660Z,5.82
2022-07-30T05:21:34.734Z,5.20
2022-07-30T05:22:37.144Z,5.60
2022-07-30T05:23:49.977Z,5.45
2022-07-30T05:24:59.122Z,5.55
2022-07-30T05:26:01.862Z,5.50
2022-07-30T05:27:13.070Z,5.60
2022-07-30T05:28:15.511Z,5.40
2022-07-30T05:29:21.183Z,5.93
2022-07-30T05:30:29.449Z,5.47
2022-07-30T05:31:34.876Z,5.25
2022-07-30T05:32:38.466Z,5.50
2022-07-30T05:33:42.554Z,5.75
2022-07-30T05:34:50.058Z,5.75
2022-07-30T05:35:53.265Z,5.50
2022-07-30T05:36:55.664Z,5.25
2022-07-30T05:38:00.397Z,5.47
2022-07-30T05:39:09.013Z,5.97
2022-07-30T05:40:24.939Z,5.70
2022-07-30T05:41:39.606Z,5.47
2022-07-30T05:42:53.068Z,5.10
2022-07-30T05:43:55.726Z,5.38
2022-07-30T05:44:58.500Z,5.43
2022-07-30T05:46:03.568Z,5.57
2022-07-30T05:47:05.924Z,5.80
2022-07-30T05:48:08.536Z,6.20
2022-07-30T05:49:11.410Z,5.53
2022-07-30T05:50:14.235Z,5.85
2022-07-30T05:51:17.324Z,5.72
2022-07-30T05:52:19.684Z,5.60
2022-07-30T05:53:22.042Z,5.45
2022-07-30T05:54:50.232Z,5.53
2022-07-30T05:56:11.083Z,5.63
2022-07-30T05:57:28.202Z,5.40
2022-07-30T05:58:30.415Z,5.55
2022-07-30T05:59:32.980Z,6.03
2022-07-30T06:00:43.664Z,6.32
2022-07-30T06:01:45.983Z,6.10
2022-07-30T06:03:03.500Z,5.72
2022-07-30T06:04:25.272Z,5.78
2022-07-30T06:05:33.736Z,6.18
2022-07-30T06:06:37.383Z,5.85
2022-07-30T06:07:39.654Z,5.78
2022-07-30T06:08:44.259Z,5.75
2022-07-30T06:09:46.804Z,6.38
2022-07-30T06:10:49.430Z,5.78
2022-07-30T06:11:59.412Z,5.63
2022-07-30T06:13:01.841Z,5.75
2022-07-30T06:14:03.998Z,6.25
2022-07-30T06:15:06.878Z,5.90
2022-07-30T06:16:12.671Z,6.07
2022-07-30T06:17:15.392Z,5.70
2022-07-30T06:18:34.260Z,5.78
2022-07-30T06:19:41.566Z,6.20
2022-07-30T06:20:43.853Z,6.50
2022-07-30T06:22:07.242Z,6.82
2022-07-30T06:23:14.781Z,6.07
2022-07-30T06:24:37.908Z,5.82
2022-07-30T06:25:45.551Z,6.20
2022-07-30T06:26:48.877Z,6.38
2022-07-30T06:27:54.918Z,6.80
2022-07-30T06:28:57.969Z,6.40
2022-07-30T06:30:09.926Z,6.18
2022-07-30T06:31:12.273Z,6.32
2022-07-30T06:32:14.574Z,6.65
2022-07-30T06:33:16.811Z,6.32
2022-07-30T06:34:19.173Z,6.05
2022-07-30T06:35:21.886Z,6.43
2022-07-30T06:36:25.346Z,7.07
2022-07-30T06:38:05.915Z,6.38
2022-07-30T06:38:59.456Z,6.18
2022-07-30T06:40:33.790Z,6.43
2022-07-30T06:41:50.729Z,6.20
2022-07-30T06:42:52.962Z,6.63
2022-07-30T06:44:16.735Z,6.40
2022-07-30T06:45:39.623Z,6.20
2022-07-30T06:46:55.623Z,6.15
2022-07-30T06:48:00.873Z,6.47
2022-07-30T06:49:14.058Z,6.60
2022-07-30T06:50:18.951Z,7.10
2022-07-30T06:51:21.589Z,6.63
2022-07-30T06:52:24.397Z,6.72
2022-07-30T06:53:28.742Z,6.70
2022-07-30T06:54:54.027Z,6.45
2022-07-30T06:56:03.554Z,6.60
2022-07-30T06:57:23.568Z,6.68
2022-07-30T06:58:26.663Z,6.95
2022-07-30T06:59:57.111Z,6.70
2022-07-30T07:01:10.984Z,7.50
2022-07-30T07:02:14.484Z,7.10
2022-07-30T07:03:39.655Z,7.28
2022-07-30T07:04:42.755Z,6.80
2022-07-30T07:05:47.668Z,6.85
2022-07-30T07:06:49.973Z,6.80
2022-07-30T07:08:00.966Z,7.00
2022-07-30T07:09:08.660Z,6.50
2022-07-30T07:10:18.302Z,7.30
2022-07-30T07:11:20.805Z,6.97
2022-07-30T07:12:26.882Z,6.95
2022-07-30T07:13:29.277Z,6.82
2022-07-30T07:14:34.084Z,6.80
2022-07-30T07:15:37.594Z,6.43
2022-07-30T07:16:43.629Z,7.43
2022-07-30T07:18:12.116Z,6.95
2022-07-30T07:19:59.990Z,7.10
2022-07-30T07:20:38.954Z,6.70
2022-07-30T07:21:43.630Z,6.57
2022-07-30T07:22:45.966Z,6.85
2022-07-30T07:23:51.172Z,6.95
2022-07-30T07:25:12.431Z,6.82
2022-07-30T07:26:19.952Z,7.28
2022-07-30T07:27:22.313Z,6.68
2022-07-30T07:28:33.323Z,6.72
2022-07-30T07:29:36.522Z,6.78
2022-07-30T07:30:38.850Z,6.55
2022-07-30T07:32:05.314Z,7.13
2022-07-30T07:33:05.583Z,6.60
2022-07-30T07:34:08.054Z,6.47
2022-07-30T07:35:10.468Z,6.60
2022-07-30T07:36:15.657Z,6.45
2022-07-30T07:37:26.331Z,6.53
2022-07-30T07:38:28.835Z,6.63
2022-07-30T07:39:35.924Z,6.25
2022-07-30T07:40:40.840Z,6.45
2022-07-30T07:41:48.967Z,6.18
2022-07-30T07:42:54.084Z,6.38
2022-07-30T07:43:56.369Z,6.63
2022-07-30T07:45:07.830Z,6.93
2022-07-30T07:46:33.741Z,6.85
2022-07-30T07:47:51.567Z,6.82
2022-07-30T07:49:21.599Z,6.90
2022-07-30T07:50:27.845Z,6.97
2022-07-30T07:51:47.619Z,7.25
2022-07-30T07:52:52.283Z,6.72
2022-07-30T07:54:19.838Z,7.30
2022-07-30T07:55:20.082Z,7.53
2022-07-30T07:56:22.944Z,6.82
2022-07-30T07:57:25.364Z,6.72
2022-07-30T07:58:28.283Z,7.18
2022-07-30T07:59:40.524Z,7.30
2022-07-30T08:00:48.901Z,6.35
2022-07-30T08:01:53.092Z,7.15
2022-07-30T08:03:28.758Z,6.90
2022-07-30T08:04:32.081Z,6.72
2022-07-30T08:06:02.041Z,7.40
2022-07-30T08:07:34.868Z,7.22
2022-07-30T08:08:56.085Z,6.88
2022-07-30T08:10:16.953Z,7.22
2022-07-30T08:11:41.993Z,7.22
2022-07-30T08:13:07.684Z,6.65
2022-07-30T08:14:48.346Z,6.32
2022-07-30T08:16:20.595Z,6.72
2022-07-30T08:17:46.028Z,6.88
2022-07-30T08:18:52.715Z,6.53
2022-07-30T08:20:17.905Z,6.97
2022-07-30T08:21:20.201Z,6.57
2022-07-30T08:22:22.392Z,6.57
2022-07-30T08:23:24.662Z,6.55
2022-07-30T08:24:27.178Z,6.15
2022-07-30T08:25:29.395Z,7.00
2022-07-30T08:26:32.059Z,6.60
2022-07-30T08:27:34.638Z,6.20
2022-07-30T08:28:37.014Z,6.63
2022-07-30T08:29:42.114Z,6.30
2022-07-30T08:30:44.452Z,6.15
2022-07-30T08:31:46.807Z,6.22
2022-07-30T08:32:49.076Z,6.05
2022-07-30T08:33:51.420Z,5.60
2022-07-30T08:34:53.673Z,6.05
2022-07-30T08:36:02.864Z,5.60
2022-07-30T08:37:06.127Z,5.97
2022-07-30T08:38:09.667Z,5.70
2022-07-30T08:39:11.996Z,6.05
2022-07-30T08:40:14.399Z,6.47
2022-07-30T08:41:28.131Z,6.57
2022-07-30T08:42:33.902Z,6.18
2022-07-30T08:43:40.075Z,5.93
2022-07-30T08:44:45.184Z,6.35
2022-07-30T08:47:31.140Z,5.53
2022-07-30T08:48:47.102Z,5.68
2022-07-30T08:49:54.115Z,5.90
2022-07-30T08:51:01.141Z,5.93
2022-07-30T08:52:12.652Z,5.90
2022-07-30T08:53:18.923Z,5.75
2022-07-30T08:54:21.451Z,5.90
2022-07-30T08:55:23.836Z,6.63
2022-07-30T08:56:26.316Z,5.88
2022-07-30T08:57:32.595Z,6.28
2022-07-30T08:58:35.998Z,6.20
2022-07-30T08:59:59.179Z,6.32
2022-07-30T09:01:04.925Z,6.35
2022-07-30T09:02:10.522Z,5.95
2022-07-30T09:03:27.930Z,6.03
2022-07-30T09:04:33.880Z,5.82
2022-07-30T09:05:36.199Z,5.50
2022-07-30T09:06:38.595Z,5.95
2022-07-30T09:07:41.694Z,5.80
2022-07-30T09:08:49.662Z,5.63
2022-07-30T09:09:52.734Z,6.13
2022-07-30T09:10:55.442Z,5.93
2022-07-30T09:11:59.589Z,6.00
2022-07-30T09:13:04.877Z,6.35
2022-07-30T09:14:12.261Z,6.35
2022-07-30T09:16:33.993Z,5.70
2022-07-30T09:17:59.190Z,5.85
2022-07-30T09:19:14.614Z,5.38
2022-07-30T09:20:20.712Z,5.35
2022-07-30T09:21:28.447Z,5.97
2022-07-30T09:22:53.241Z,6.00
2022-07-30T09:24:14.174Z,5.78
2022-07-30T09:25:45.862Z,5.95
2022-07-30T09:27:12.463Z,6.10
2022-07-30T09:28:32.250Z,5.80
2022-07-30T09:30:07.770Z,6.20
2022-07-30T09:33:09.885Z,6.25
2022-07-30T09:34:50.537Z,6.45
2022-07-30T09:36:16.239Z,6.10
2022-07-30T09:38:04.513Z,5.68
2022-07-30T09:39:34.244Z,6.10
2022-07-30T09:40:57.684Z,6.82
2022-07-30T09:42:21.273Z,6.55
2022-07-30T09:43:27.692Z,6.15
2022-07-30T09:44:38.896Z,6.13
2022-07-30T09:45:57.259Z,6.95
2022-07-30T09:47:01.422Z,6.05
2022-07-30T09:48:21.179Z,6.38
2022-07-30T09:49:27.927Z,6.65
2022-07-30T09:50:34.004Z,6.63
2022-07-30T09:51:54.226Z,6.65
2022-07-30T09:53:12.039Z,6.55
2022-07-30T09:54:19.972Z,6.10
2022-07-30T09:55:41.387Z,6.03
2022-07-30T09:56:53.661Z,5.65
2022-07-30T09:57:59.122Z,6.13
2022-07-30T09:59:18.734Z,6.07
2022-07-30T10:00:24.711Z,6.53
2022-07-30T10:02:01.010Z,6.07
2022-07-30T10:03:33.767Z,6.22
2022-07-30T10:05:14.116Z,6.40
2022-07-30T10:06:17.268Z,6.03
2022-07-30T10:07:25.350Z,6.65
2022-07-30T10:08:55.600Z,6.10
2022-07-30T10:10:00.211Z,6.10
2022-07-30T10:11:08.579Z,5.90
2022-07-30T10:12:14.088Z,5.97
2022-07-30T10:13:21.150Z,6.30
2022-07-30T10:14:30.778Z,6.10
2022-07-30T10:15:37.216Z,6.28
2022-07-30T10:16:41.697Z,6.20
2022-07-30T10:17:44.068Z,6.30
2022-07-30T10:18:57.630Z,6.40
2022-07-30T10:20:21.709Z,6.20
2022-07-30T10:21:43.470Z,6.50
2022-07-30T10:22:57.595Z,6.05
2022-07-30T10:24:12.622Z,6.15
2022-07-30T10:25:35.244Z,5.90
2022-07-30T10:26:59.886Z,6.18
2022-07-30T10:28:54.718Z,5.97
2022-07-30T10:29:59.527Z,6.10
2022-07-30T10:31:46.903Z,5.85
2022-07-30T10:32:30.826Z,6.00
2022-07-30T10:33:34.820Z,6.22
2022-07-30T10:34:42.564Z,6.05
2022-07-30T10:35:45.096Z,6.25
2022-07-30T10:36:57.931Z,6.03
2022-07-30T10:38:01.300Z,6.35
2022-07-30T10:39:06.006Z,6.15
2022-07-30T10:40:17.386Z,6.72
2022-07-30T10:41:44.264Z,6.93
2022-07-30T10:43:16.172Z,6.32
2022-07-30T10:44:51.511Z,6.55
2022-07-30T10:46:10.476Z,6.95
2022-07-30T10:47:34.622Z,6.78
2022-07-30T10:48:39.291Z,5.82
2022-07-30T10:49:43.409Z,6.10
2022-07-30T10:50:54.602Z,6.35
2022-07-30T10:51:58.751Z,6.40
2022-07-30T10:53:03.077Z,6.30
2022-07-30T10:54:05.771Z,6.32
2022-07-30T10:55:15.685Z,6.78
2022-07-30T10:56:26.129Z,6.00
2022-07-30T10:57:32.410Z,6.30
2022-07-30T10:58:59.651Z,6.38
2022-07-30T11:00:05.330Z,6.25
2022-07-30T11:01:18.469Z,5.68
2022-07-30T11:02:23.072Z,5.80
2022-07-30T11:03:40.750Z,5.70
2022-07-30T11:04:47.167Z,5.72
2022-07-30T11:05:52.712Z,5.88
2022-07-30T11:07:24.078Z,5.70
2022-07-30T11:08:31.755Z,5.88
2022-07-30T11:10:04.994Z,6.00
2022-07-30T11:11:28.675Z,5.50
2022-07-30T11:12:53.017Z,5.97
2022-07-30T11:13:57.933Z,5.85
2022-07-30T11:15:06.843Z,6.20
2022-07-30T11:16:21.254Z,6.43
2022-07-30T11:17:24.259Z,6.63
2022-07-30T11:18:28.832Z,6.18
2022-07-30T11:20:04.339Z,6.70
2022-07-30T11:21:21.394Z,6.65
2022-07-30T11:22:31.508Z,6.55
2022-07-30T11:23:39.245Z,6.32
2022-07-30T11:24:46.263Z,5.50
2022-07-30T11:25:51.238Z,5.88
2022-07-30T11:26:54.419Z,6.10
2022-07-30T11:27:57.638Z,5.40
2022-07-30T11:29:02.395Z,6.28
2022-07-30T11:30:26.233Z,5.97
2022-07-30T11:31:56.813Z,5.47
2022-07-30T11:33:04.288Z,6.18
2022-07-30T11:34:32.758Z,6.20
2022-07-30T11:35:35.643Z,6.03
2022-07-30T11:36:58.102Z,6.45
2022-07-30T11:39:10.389Z,5.35
2022-07-30T11:40:13.254Z,5.30
2022-07-30T11:41:21.025Z,5.32
2022-07-30T11:42:34.864Z,5.10
2022-07-30T11:43:37.227Z,5.50
2022-07-30T11:44:39.515Z,5.82
2022-07-30T11:45:41.954Z,5.72
2022-07-30T11:46:50.428Z,4.97
2022-07-30T11:47:56.837Z,5.22
2022-07-30T11:49:10.331Z,5.35
2022-07-30T11:50:32.683Z,5.40
2022-07-30T11:51:41.345Z,5.38
2022-07-30T11:52:46.511Z,4.88
2022-07-30T11:54:02.605Z,5.40
2022-07-30T11:55:05.417Z,5.30
2022-07-30T11:56:09.577Z,5.70
2022-07-30T11:57:16.129Z,5.47
2022-07-30T11:58:35.011Z,5.72
2022-07-30T12:00:02.042Z,5.00
2022-07-30T12:01:09.523Z,5.30
2022-07-30T12:02:15.199Z,5.57
2022-07-30T12:03:19.459Z,5.18
2022-07-30T12:04:21.921Z,5.28
2022-07-30T12:05:26.524Z,5.57
2022-07-30T12:06:28.781Z,5.25
2022-07-30T12:07:32.134Z,5.30
2022-07-30T12:08:42.430Z,5.90
2022-07-30T12:09:44.635Z,5.70
2022-07-30T12:11:02.239Z,5.82
2022-07-30T12:12:23.686Z,5.70
2022-07-30T12:13:44.066Z,6.30
2022-07-30T12:14:48.830Z,6.32
2022-07-30T12:15:51.347Z,5.75
2022-07-30T12:16:54.547Z,5.60
2022-07-30T12:18:11.070Z,5.80
2022-07-30T12:19:19.265Z,5.40
2022-07-30T12:20:21.789Z,5.63
2022-07-30T12:21:24.945Z,5.28
2022-07-30T12:22:27.253Z,5.88
2022-07-30T12:23:31.333Z,5.78
2022-07-30T12:24:36.699Z,5.82
2022-07-30T12:25:47.855Z,5.90
2022-07-30T12:27:07.074Z,5.97
2022-07-30T12:28:13.140Z,5.60
2022-07-30T12:29:17.107Z,6.13
2022-07-30T12:30:21.139Z,5.80
2022-07-30T12:31:23.883Z,5.28
2022-07-30T12:32:28.676Z,5.38
2022-07-30T12:33:33.498Z,5.60
2022-07-30T12:34:35.742Z,5.57
2022-07-30T12:35:46.390Z,5.43
2022-07-30T12:36:49.160Z,5.18
2022-07-30T12:38:07.406Z,4.93
2022-07-30T12:39:20.411Z,5.70
2022-07-30T12:40:22.871Z,5.60
2022-07-30T12:41:48.521Z,5.47
2022-07-30T12:42:52.090Z,5.57
2022-07-30T12:43:55.945Z,5.32
2022-07-30T12:44:58.476Z,5.50
2022-07-30T12:46:00.776Z,5.22
2022-07-30T12:47:07.582Z,5.25
2022-07-30T12:48:11.349Z,6.00
2022-07-30T12:49:22.000Z,5.50
2022-07-30T12:50:26.556Z,5.20
2022-07-30T12:51:35.042Z,5.50
2022-07-30T12:52:40.137Z,5.20
2022-07-30T12:53:42.452Z,4.97
2022-07-30T12:54:44.724Z,5.30
2022-07-30T12:55:47.023Z,5.22
2022-07-30T12:56:59.964Z,5.35
2022-07-30T12:58:08.385Z,5.32
2022-07-30T12:59:22.543Z,5.38
2022-07-30T13:00:52.034Z,5.75
2022-07-30T13:01:54.464Z,4.78
2022-07-30T13:02:57.535Z,5.30
2022-07-30T13:04:06.826Z,5.15
2022-07-30T13:05:12.264Z,5.10
2022-07-30T13:06:25.697Z,4.93
2022-07-30T13:07:32.512Z,5.38
2022-07-30T13:08:56.485Z,5.63
2022-07-30T13:10:12.691Z,5.57
2022-07-30T13:11:15.563Z,5.50
2022-07-30T13:12:17.821Z,4.97
2022-07-30T13:13:20.041Z,5.63
2022-07-30T13:14:23.542Z,5.65
2022-07-30T13:15:26.940Z,5.43
2022-07-30T13:16:37.054Z,5.32
2022-07-30T13:17:39.252Z,5.05
2022-07-30T13:18:41.639Z,5.90
2022-07-30T13:19:43.831Z,5.20
2022-07-30T13:20:46.059Z,5.85
2022-07-30T13:21:49.778Z,5.35
2022-07-30T13:22:52.399Z,5.32
2022-07-30T13:23:54.633Z,5.50
2022-07-30T13:24:56.949Z,5.40
2022-07-30T13:25:59.226Z,5.35
2022-07-30T13:27:01.770Z,5.30
2022-07-30T13:28:04.491Z,5.85
2022-07-30T13:29:06.905Z,5.47
2022-07-30T13:30:09.960Z,5.72
2022-07-30T13:31:12.777Z,5.28
2022-07-30T13:32:15.066Z,5.32
2022-07-30T13:33:17.857Z,5.70
2022-07-30T13:34:20.363Z,5.57
2022-07-30T13:35:22.559Z,5.20
2022-07-30T13:36:24.920Z,4.97
2022-07-30T13:37:37.761Z,5.63
2022-07-30T13:38:40.756Z,5.22
2022-07-30T13:39:42.958Z,5.70
2022-07-30T13:40:45.187Z,5.75
2022-07-30T13:41:47.435Z,5.55
2022-07-30T13:42:49.635Z,5.88
2022-07-30T13:43:54.998Z,5.88
2022-07-30T13:45:00.064Z,5.45
2022-07-30T13:46:04.102Z,5.53
2022-07-30T13:47:08.624Z,5.18
2022-07-30T13:48:11.344Z,6.25
2022-07-30T13:49:13.577Z,6.03
2022-07-30T13:50:18.943Z,6.07
2022-07-30T13:51:21.257Z,5.68
2022-07-30T13:52:23.456Z,5.72
2022-07-30T13:53:25.776Z,5.82
2022-07-30T13:54:29.660Z,5.63
2022-07-30T13:55:32.832Z,5.88
2022-07-30T13:56:40.888Z,5.10
2022-07-30T13:57:44.663Z,5.18
2022-07-30T13:58:51.184Z,5.32
2022-07-30T13:59:53.368Z,5.38
2022-07-30T14:00:58.306Z,5.30
2022-07-30T14:02:01.466Z,5.30
2022-07-30T14:03:07.303Z,5.30
2022-07-30T14:04:11.845Z,5.05
2022-07-30T14:05:14.090Z,5.30
2022-07-30T14:06:17.009Z,4.80
2022-07-30T14:07:19.829Z,4.90
2022-07-30T14:08:25.643Z,4.90
2022-07-30T14:09:28.320Z,5.40
2022-07-30T14:10:30.927Z,5.50
2022-07-30T14:11:33.170Z,5.00
2022-07-30T14:12:36.268Z,4.82
2022-07-30T14:13:38.626Z,5.03
2022-07-30T14:14:40.821Z,5.50
2022-07-30T14:15:43.052Z,5.40
2022-07-30T14:16:47.039Z,5.20
2022-07-30T14:17:56.069Z,5.05
2022-07-30T14:18:58.997Z,5.00
2022-07-30T14:20:01.252Z,4.80
2022-07-30T14:21:03.428Z,4.50
2022-07-30T14:22:08.256Z,4.90
2022-07-30T14:23:10.512Z,4.57
2022-07-30T14:24:13.862Z,4.90
2022-07-30T14:25:16.140Z,4.88
2022-07-30T14:26:19.341Z,5.18
2022-07-30T14:27:21.663Z,4.53
2022-07-30T14:28:24.233Z,5.20
2022-07-30T14:29:27.422Z,5.20
2022-07-30T14:30:32.915Z,5.00
2022-07-30T14:31:35.780Z,4.80
2022-07-30T14:32:39.214Z,5.18
2022-07-30T14:33:41.482Z,4.97
2022-07-30T14:34:49.185Z,5.15
2022-07-30T14:35:51.976Z,4.55
2022-07-30T14:36:54.203Z,5.20
2022-07-30T14:37:56.501Z,4.82
2022-07-30T14:39:02.578Z,4.70
2022-07-30T14:40:11.607Z,4.38
2022-07-30T14:41:13.864Z,4.47
2022-07-30T14:42:16.304Z,4.75
2022-07-30T14:43:19.744Z,5.00
2022-07-30T14:44:22.597Z,5.00
2022-07-30T14:45:25.501Z,4.70
2022-07-30T14:46:27.917Z,4.80
2022-07-30T14:47:30.883Z,5.40
2022-07-30T14:48:33.111Z,4.90
2022-07-30T14:49:36.861Z,4.80
2022-07-30T14:50:56.918Z,4.63
2022-07-30T14:52:01.328Z,4.65
2022-07-30T14:53:03.622Z,4.63
2022-07-30T14:54:05.828Z,4.78
2022-07-30T14:55:09.057Z,4.63
2022-07-30T14:56:11.923Z,4.60
2022-07-30T14:57:14.114Z,5.07
2022-07-30T14:58:16.301Z,4.60
2022-07-30T14:59:18.558Z,4.38
2022-07-30T15:00:21.321Z,4.63
2022-07-30T15:01:26.783Z,4.65
2022-07-30T15:02:29.127Z,4.40
2022-07-30T15:03:31.299Z,4.78
2022-07-30T15:04:33.660Z,5.03
2022-07-30T15:05:38.472Z,5.15
2022-07-30T15:06:41.896Z,4.90
2022-07-30T15:07:44.114Z,4.95
2022-07-30T15:08:46.707Z,4.50
2022-07-30T15:09:48.903Z,5.13
2022-07-30T15:10:51.131Z,4.53
2022-07-30T15:12:26.675Z,4.63
2022-07-30T15:13:15.971Z,4.88